createdAt,value
2018-12-20T00:01:56.589Z,6.00
2018-12-20T00:04:25.679Z,6.00
2018-12-20T00:06:54.588Z,6.00
2018-12-20T00:09:23.507Z,6.00
2018-12-20T00:11:52.432Z,5.90
2018-12-20T00:14:21.619Z,6.00
2018-12-20T00:16:54.717Z,6.00
2018-12-20T00:19:23.694Z,6.00
2018-12-20T00:21:52.826Z,6.00
2018-12-20T00:24:22.026Z,6.00
2018-12-20T00:26:51.017Z,6.00
2018-12-20T00:29:19.904Z,6.00
2018-12-20T00:31:48.876Z,6.00
2018-12-20T00:34:17.880Z,6.00
2018-12-20T00:36:46.856Z,6.10
2018-12-20T00:39:15.908Z,6.10
2018-12-20T00:41:44.867Z,6.10
2018-12-20T00:44:13.870Z,6.10
2018-12-20T00:46:42.973Z,6.10
2018-12-20T00:49:12.028Z,6.10
2018-12-20T00:51:41.022Z,6.10
2018-12-20T00:54:10.030Z,6.00
2018-12-20T00:56:39.097Z,6.00
2018-12-20T00:59:08.030Z,6.00
2018-12-20T01:01:37.134Z,5.90
2018-12-20T01:04:06.171Z,5.90
2018-12-20T01:06:35.194Z,5.90
2018-12-20T01:09:06.676Z,5.80
2018-12-20T01:11:35.710Z,5.90
2018-12-20T01:14:04.605Z,5.90
2018-12-20T01:16:33.568Z,5.90
2018-12-20T01:19:02.537Z,5.80
2018-12-20T01:21:32.018Z,5.90
2018-12-20T01:24:01.033Z,5.90
2018-12-20T01:26:30.285Z,5.90
2018-12-20T01:28:59.339Z,5.90
2018-12-20T01:31:28.248Z,6.00
2018-12-20T01:33:57.390Z,6.00
2018-12-20T01:36:26.506Z,6.00
2018-12-20T01:38:55.466Z,6.10
2018-12-20T01:41:24.474Z,6.10
2018-12-20T01:43:53.376Z,6.10
2018-12-20T01:46:22.463Z,6.20
2018-12-20T01:48:51.362Z,6.20
2018-12-20T01:51:20.334Z,6.20
2018-12-20T01:53:49.257Z,6.20
2018-12-20T01:56:18.198Z,6.30
2018-12-20T01:58:47.270Z,6.30
2018-12-20T02:01:16.358Z,6.30
2018-12-20T02:03:45.366Z,6.40
2018-12-20T02:06:14.369Z,6.40
2018-12-20T02:08:44.312Z,6.40
2018-12-20T02:11:13.289Z,6.40
2018-12-20T02:13:42.238Z,6.50
2018-12-20T02:16:11.159Z,6.50
2018-12-20T02:18:40.168Z,6.40
2018-12-20T02:21:09.213Z,6.40
2018-12-20T02:23:38.232Z,6.40
2018-12-20T02:26:07.142Z,6.40
2018-12-20T02:28:37.078Z,6.40
2018-12-20T02:31:06.234Z,6.40
2018-12-20T02:33:35.884Z,6.40
2018-12-20T02:36:05.143Z,6.40
2018-12-20T02:38:34.268Z,6.40
2018-12-20T02:41:03.331Z,6.40
2018-12-20T02:43:32.409Z,6.40
2018-12-20T02:46:01.598Z,6.40
2018-12-20T02:48:30.507Z,6.40
2018-12-20T02:50:59.461Z,6.40
2018-12-20T02:53:28.614Z,6.50
2018-12-20T02:55:57.539Z,6.50
2018-12-20T02:58:26.717Z,6.50
2018-12-20T03:00:55.970Z,6.60
2018-12-20T03:03:25.106Z,6.60
2018-12-20T03:05:54.573Z,6.60
2018-12-20T03:08:23.926Z,6.60
2018-12-20T03:10:52.823Z,6.60
2018-12-20T03:13:21.780Z,6.60
2018-12-20T03:15:50.730Z,6.50
2018-12-20T03:18:19.788Z,6.50
2018-12-20T03:20:49.076Z,6.60
2018-12-20T03:23:18.090Z,6.60
2018-12-20T03:25:47.021Z,6.60
2018-12-20T03:28:16.031Z,6.60
2018-12-20T03:30:44.994Z,6.60
2018-12-20T03:33:13.617Z,6.60
2018-12-20T03:35:42.589Z,6.60
2018-12-20T03:38:11.508Z,6.60
2018-12-20T03:40:40.497Z,6.60
2018-12-20T03:43:09.402Z,6.60
2018-12-20T03:45:38.578Z,6.60
2018-12-20T03:48:07.594Z,6.70
2018-12-20T03:50:36.667Z,6.60
2018-12-20T03:53:05.746Z,6.70
2018-12-20T03:55:34.749Z,6.70
2018-12-20T03:58:07.052Z,6.60
2018-12-20T04:03:44.587Z,6.60
2018-12-20T04:06:13.630Z,6.60
2018-12-20T04:11:50.476Z,6.70
2018-12-20T04:14:19.351Z,6.70
2018-12-20T04:16:53.908Z,6.70
2018-12-20T04:19:23.121Z,6.70
2018-12-20T04:21:52.319Z,6.70
2018-12-20T04:24:21.257Z,6.70
2018-12-20T04:26:50.361Z,6.70
2018-12-20T04:29:36.322Z,6.70
2018-12-20T04:32:05.270Z,6.70
2018-12-20T04:34:34.277Z,6.70
2018-12-20T04:37:03.281Z,6.70
2018-12-20T04:39:32.196Z,6.70
2018-12-20T04:42:01.120Z,6.80
2018-12-20T04:44:30.205Z,6.80
2018-12-20T04:46:59.682Z,6.80
2018-12-20T04:49:28.957Z,6.80
2018-12-20T04:51:57.868Z,6.80
2018-12-20T04:54:27.081Z,6.80
2018-12-20T04:56:56.143Z,6.80
2018-12-20T04:59:25.356Z,6.80
2018-12-20T05:01:54.308Z,6.80
2018-12-20T05:04:23.216Z,6.70
2018-12-20T05:06:52.083Z,6.70
2018-12-20T05:09:20.934Z,6.60
2018-12-20T05:11:50.055Z,6.60
2018-12-20T05:14:19.090Z,6.60
2018-12-20T05:16:48.024Z,6.60
2018-12-20T05:19:16.941Z,6.70
2018-12-20T05:21:45.800Z,6.70
2018-12-20T05:24:15.086Z,6.70
2018-12-20T05:26:44.185Z,6.80
2018-12-20T05:29:13.218Z,6.80
2018-12-20T05:31:42.251Z,6.80
2018-12-20T05:34:11.159Z,6.80
2018-12-20T05:36:40.061Z,6.70
2018-12-20T05:39:08.948Z,6.80
2018-12-20T05:41:43.308Z,6.80
2018-12-20T05:44:30.398Z,6.80
2018-12-20T05:46:59.392Z,6.80
2018-12-20T05:49:34.016Z,6.70
2018-12-20T05:52:02.938Z,6.70
2018-12-20T05:54:37.830Z,6.70
2018-12-20T06:00:12.072Z,6.70
2018-12-20T06:02:49.173Z,6.70
2018-12-20T06:05:23.942Z,6.60
2018-12-20T06:07:58.857Z,6.60
2018-12-20T06:10:31.844Z,6.60
2018-12-20T06:13:00.768Z,6.50
2018-12-20T06:15:29.876Z,6.50
2018-12-20T06:17:59.001Z,6.50
2018-12-20T06:20:27.957Z,6.50
2018-12-20T06:22:56.835Z,6.50
2018-12-20T06:25:25.726Z,6.50
2018-12-20T06:30:16.462Z,6.50
2018-12-20T06:32:45.649Z,6.40
2018-12-20T06:35:14.662Z,6.30
2018-12-20T06:37:43.610Z,6.40
2018-12-20T06:40:12.498Z,6.40
2018-12-20T06:42:41.486Z,6.40
2018-12-20T06:45:10.393Z,6.40
2018-12-20T06:47:39.297Z,6.40
2018-12-20T06:50:08.304Z,6.40
2018-12-20T06:52:37.338Z,6.40
2018-12-20T06:55:06.355Z,6.50
2018-12-20T06:57:35.292Z,6.60
2018-12-20T07:00:04.903Z,6.60
2018-12-20T07:02:33.825Z,6.70
2018-12-20T07:05:02.839Z,6.70
2018-12-20T07:07:31.709Z,6.70
2018-12-20T07:10:00.665Z,6.70
2018-12-20T07:12:29.615Z,6.70
2018-12-20T07:14:58.531Z,6.70
2018-12-20T07:17:27.490Z,6.70
2018-12-20T07:19:57.115Z,6.70
2018-12-20T07:22:26.787Z,6.80
2018-12-20T07:24:56.472Z,6.80
2018-12-20T07:27:26.963Z,6.80
2018-12-20T07:29:56.258Z,6.80
2018-12-20T07:32:25.614Z,6.80
2018-12-20T07:34:56.388Z,6.80
2018-12-20T07:37:27.002Z,6.70
2018-12-20T07:39:57.442Z,6.80
2018-12-20T07:42:26.446Z,6.80
2018-12-20T07:44:55.360Z,6.80
2018-12-20T07:47:26.459Z,6.80
2018-12-20T07:49:56.339Z,6.80
2018-12-20T07:52:26.748Z,6.80
2018-12-20T07:54:55.773Z,6.80
2018-12-20T07:57:24.939Z,6.80
2018-12-20T07:59:54.001Z,6.80
2018-12-20T08:02:22.880Z,6.80
2018-12-20T08:04:51.761Z,6.90
2018-12-20T08:07:20.668Z,6.90
2018-12-20T08:09:49.661Z,6.90
2018-12-20T08:12:18.619Z,6.90
2018-12-20T08:14:47.668Z,6.90
2018-12-20T08:17:16.545Z,6.90
2018-12-20T08:19:45.421Z,7.00
2018-12-20T08:22:14.312Z,7.10
2018-12-20T08:24:43.295Z,7.10
2018-12-20T08:27:12.582Z,7.20
2018-12-20T08:29:43.825Z,7.30
2018-12-20T08:32:12.747Z,7.30
2018-12-20T08:34:41.711Z,7.30
2018-12-20T08:37:10.644Z,7.40
2018-12-20T08:39:39.533Z,7.50
2018-12-20T08:42:08.397Z,7.60
2018-12-20T08:44:37.301Z,7.60
2018-12-20T08:47:06.672Z,7.70
2018-12-20T08:49:35.860Z,7.70
2018-12-20T08:52:04.881Z,7.80
2018-12-20T08:54:34.110Z,7.80
2018-12-20T08:57:04.350Z,7.70
2018-12-20T08:59:33.499Z,7.70
2018-12-20T09:02:02.435Z,7.70
2018-12-20T09:04:33.415Z,7.70
2018-12-20T09:07:02.456Z,7.80
2018-12-20T09:09:31.423Z,7.90
2018-12-20T09:12:00.347Z,7.90
2018-12-20T09:14:29.306Z,8.20
2018-12-20T09:19:47.372Z,8.50
2018-12-20T09:22:16.365Z,8.90
2018-12-20T09:24:45.267Z,9.00
2018-12-20T09:27:14.250Z,9.10
2018-12-20T09:29:43.249Z,9.20
2018-12-20T09:32:12.228Z,9.20
2018-12-20T09:34:41.380Z,9.10
2018-12-20T09:37:10.273Z,9.00
2018-12-20T09:39:39.219Z,9.00
2018-12-20T09:42:08.130Z,9.00
2018-12-20T09:44:37.044Z,9.00
2018-12-20T09:48:10.796Z,9.10
2018-12-20T09:50:39.703Z,9.10
2018-12-20T09:53:08.609Z,9.00
2018-12-20T09:55:37.541Z,8.90
2018-12-20T09:58:06.513Z,8.90
2018-12-20T10:00:35.733Z,8.90
2018-12-20T10:03:04.878Z,8.90
2018-12-20T10:05:33.856Z,8.80
2018-12-20T10:08:02.777Z,8.70
2018-12-20T10:10:31.688Z,8.70
2018-12-20T10:13:00.781Z,8.70
2018-12-20T10:15:29.746Z,8.80
2018-12-20T10:17:58.713Z,8.90
2018-12-20T10:20:28.020Z,9.00
2018-12-20T10:22:57.013Z,9.40
2018-12-20T10:25:25.900Z,10.00
2018-12-20T10:27:54.893Z,10.60
2018-12-20T10:30:23.788Z,11.20
2018-12-20T10:32:52.716Z,11.90
2018-12-20T10:35:22.629Z,12.80
2018-12-20T10:37:51.532Z,13.40
2018-12-20T10:40:20.457Z,13.70
2018-12-20T10:42:49.417Z,14.00
2018-12-20T10:45:18.334Z,14.40
2018-12-20T10:47:47.235Z,14.70
2018-12-20T10:50:16.186Z,15.10
2018-12-20T10:52:45.314Z,15.40
2018-12-20T10:55:14.273Z,15.60
2018-12-20T10:57:43.214Z,15.70
2018-12-20T11:00:12.466Z,15.80
2018-12-20T11:02:47.976Z,16.20
2018-12-20T11:05:22.696Z,16.60
2018-12-20T11:08:01.626Z,16.60
2018-12-20T11:10:30.553Z,16.60
2018-12-20T11:13:03.862Z,16.20
2018-12-20T11:15:32.780Z,15.70
2018-12-20T11:18:01.772Z,15.00
2018-12-20T11:20:30.834Z,14.20
2018-12-20T11:22:59.919Z,13.50
2018-12-20T11:25:29.944Z,12.90
2018-12-20T11:27:58.961Z,12.40
2018-12-20T11:30:27.856Z,11.90
2018-12-20T11:32:56.741Z,11.70
2018-12-20T11:35:25.651Z,11.40
2018-12-20T11:37:54.582Z,11.40
2018-12-20T11:40:23.727Z,11.50
2018-12-20T11:42:52.671Z,11.70
2018-12-20T11:45:21.563Z,12.00
2018-12-20T11:47:50.461Z,12.10
2018-12-20T11:50:19.383Z,12.00
2018-12-20T11:52:48.405Z,12.00
2018-12-20T11:55:17.294Z,12.00
2018-12-20T11:57:46.217Z,12.10
2018-12-20T12:00:15.481Z,12.10
2018-12-20T12:02:44.509Z,11.90
2018-12-20T12:05:14.600Z,11.70
2018-12-20T12:07:43.532Z,11.50
2018-12-20T12:10:12.562Z,11.20
2018-12-20T12:12:41.606Z,11.00
2018-12-20T12:15:10.670Z,10.80
2018-12-20T12:17:39.557Z,10.70
2018-12-20T12:20:08.715Z,10.40
2018-12-20T12:22:38.663Z,10.30
2018-12-20T12:25:08.443Z,10.10
2018-12-20T12:27:37.469Z,10.00
2018-12-20T12:30:09.499Z,9.90
2018-12-20T12:32:38.421Z,9.90
2018-12-20T12:35:07.313Z,9.90
2018-12-20T12:37:36.200Z,9.90
2018-12-20T12:40:06.213Z,9.90
2018-12-20T12:45:35.599Z,9.90
2018-12-20T12:48:04.616Z,10.00
2018-12-20T12:50:34.474Z,10.00
2018-12-20T12:53:03.522Z,10.10
2018-12-20T12:55:32.532Z,10.10
2018-12-20T12:58:05.017Z,10.10
2018-12-20T13:00:32.435Z,10.00
2018-12-20T13:03:01.355Z,10.00
2018-12-20T13:05:30.244Z,9.90
2018-12-20T13:07:59.224Z,9.90
2018-12-20T13:10:28.199Z,9.80
2018-12-20T13:12:57.101Z,9.80
2018-12-20T13:15:26.213Z,9.70
2018-12-20T13:17:55.039Z,9.70
2018-12-20T13:20:23.951Z,9.70
2018-12-20T13:22:52.894Z,9.70
2018-12-20T13:25:22.010Z,9.70
2018-12-20T13:27:51.128Z,9.70
2018-12-20T13:30:20.052Z,9.70
2018-12-20T13:32:48.953Z,9.70
2018-12-20T13:35:17.910Z,9.70
2018-12-20T13:37:46.867Z,9.70
2018-12-20T13:40:15.815Z,9.70
2018-12-20T13:42:44.874Z,9.80
2018-12-20T13:45:14.075Z,9.90
2018-12-20T13:47:42.999Z,10.10
2018-12-20T13:50:11.916Z,10.20
2018-12-20T13:52:40.856Z,10.20
2018-12-20T13:55:09.920Z,10.30
2018-12-20T13:57:38.806Z,10.20
2018-12-20T14:00:13.407Z,10.20
2018-12-20T14:02:42.401Z,10.20
2018-12-20T14:05:11.352Z,10.10
2018-12-20T14:07:40.391Z,10.00
2018-12-20T14:10:09.697Z,10.00
2018-12-20T14:12:38.691Z,9.90
2018-12-20T14:15:08.458Z,9.90
2018-12-20T14:17:37.367Z,9.80
2018-12-20T14:20:07.765Z,9.80
2018-12-20T14:22:36.723Z,9.80
2018-12-20T14:25:06.166Z,9.70
2018-12-20T14:27:35.148Z,9.70
2018-12-20T14:30:04.846Z,9.70
2018-12-20T14:32:34.536Z,9.70
2018-12-20T14:35:03.581Z,9.60
2018-12-20T14:37:32.630Z,9.60
2018-12-20T14:40:01.546Z,9.50
2018-12-20T14:42:30.493Z,9.50
2018-12-20T14:44:59.379Z,9.50
2018-12-20T14:47:28.314Z,9.50
2018-12-20T14:49:57.300Z,9.50
2018-12-20T14:52:26.352Z,9.50
2018-12-20T14:54:55.284Z,9.50
2018-12-20T14:57:24.232Z,9.50
2018-12-20T14:59:53.180Z,9.50
2018-12-20T15:02:24.295Z,9.50
2018-12-20T15:04:53.280Z,9.50
2018-12-20T15:07:22.225Z,9.50
2018-12-20T15:09:51.234Z,9.50
2018-12-20T15:12:20.169Z,9.40
2018-12-20T15:14:49.177Z,9.40
2018-12-20T15:17:18.155Z,9.40
2018-12-20T15:19:47.133Z,9.30
2018-12-20T15:22:16.048Z,9.30
2018-12-20T15:24:44.994Z,9.30
2018-12-20T15:27:13.944Z,9.30
2018-12-20T15:29:42.943Z,9.30
2018-12-20T15:32:11.906Z,9.30
2018-12-20T15:34:40.804Z,9.30
2018-12-20T15:37:09.696Z,9.20
2018-12-20T15:39:38.568Z,9.20
2018-12-20T15:42:07.620Z,9.20
2018-12-20T15:44:36.500Z,9.20
2018-12-20T15:47:05.605Z,9.20
2018-12-20T15:49:41.767Z,9.10
2018-12-20T15:52:05.493Z,9.10
2018-12-20T15:54:34.479Z,9.10
2018-12-20T15:57:04.105Z,9.00
2018-12-20T15:59:33.055Z,9.00
2018-12-20T16:02:01.932Z,9.00
2018-12-20T16:05:03.286Z,9.00
2018-12-20T16:07:34.820Z,8.90
2018-12-20T16:10:23.990Z,8.90
2018-12-20T16:12:53.139Z,8.80
2018-12-20T16:15:22.733Z,8.80
2018-12-20T16:18:16.630Z,8.80
2018-12-20T16:20:45.543Z,8.80
2018-12-20T16:26:45.680Z,8.70
2018-12-20T16:29:44.224Z,8.70
2018-12-20T16:32:24.243Z,8.70
2018-12-20T16:34:54.225Z,8.70
2018-12-20T16:37:28.833Z,8.70
2018-12-20T16:40:01.381Z,8.60
2018-12-20T16:42:33.479Z,8.60
2018-12-20T16:45:11.620Z,8.50
2018-12-20T16:47:44.616Z,8.50
2018-12-20T16:50:16.772Z,8.50
2018-12-20T16:52:48.709Z,8.50
2018-12-20T16:55:17.679Z,8.50
2018-12-20T16:57:46.672Z,8.50
2018-12-20T17:00:15.788Z,8.40
2018-12-20T17:02:44.928Z,8.40
2018-12-20T17:05:14.008Z,8.40
2018-12-20T17:07:43.017Z,8.40
2018-12-20T17:10:12.020Z,8.40
2018-12-20T17:12:40.968Z,8.40
2018-12-20T17:15:09.992Z,8.30
2018-12-20T17:17:38.903Z,8.30
2018-12-20T17:20:08.456Z,8.20
2018-12-20T17:22:37.396Z,8.20
2018-12-20T17:25:06.335Z,8.10
2018-12-20T17:27:35.236Z,8.10
2018-12-20T17:30:04.925Z,8.00
2018-12-20T17:32:34.799Z,8.00
2018-12-20T17:35:04.000Z,7.90
2018-12-20T17:37:33.979Z,7.90
2018-12-20T17:40:02.972Z,7.90
2018-12-20T17:42:33.101Z,7.90
2018-12-20T17:45:02.020Z,7.90
2018-12-20T17:47:31.079Z,7.90
2018-12-20T17:49:59.971Z,8.00
2018-12-20T17:52:28.851Z,8.00
2018-12-20T17:54:57.741Z,8.00
2018-12-20T17:57:26.640Z,8.10
2018-12-20T17:59:55.530Z,8.20
2018-12-20T18:02:24.562Z,8.20
2018-12-20T18:04:53.434Z,8.20
2018-12-20T18:07:22.457Z,8.30
2018-12-20T18:09:51.335Z,8.30
2018-12-20T18:12:22.767Z,8.30
2018-12-20T18:14:56.070Z,8.30
2018-12-20T18:17:25.764Z,8.30
2018-12-20T18:19:54.674Z,8.30
2018-12-20T18:22:23.759Z,8.30
2018-12-20T18:24:52.664Z,8.30
2018-12-20T18:27:21.720Z,8.30
2018-12-20T18:29:50.863Z,8.30
2018-12-20T18:32:20.583Z,8.30
2018-12-20T18:34:49.678Z,8.30
2018-12-20T18:37:18.648Z,8.30
2018-12-20T18:39:47.556Z,8.30
2018-12-20T18:42:16.453Z,8.30
2018-12-20T18:44:45.371Z,8.20
2018-12-20T18:47:14.254Z,8.10
2018-12-20T18:49:47.541Z,8.10
2018-12-20T18:52:14.137Z,8.10
2018-12-20T18:54:42.985Z,8.00
2018-12-20T18:57:11.853Z,8.00
2018-12-20T18:59:40.777Z,8.00
2018-12-20T19:02:09.691Z,7.90
2018-12-20T19:04:38.592Z,7.90
2018-12-20T19:07:07.590Z,7.80
2018-12-20T19:09:36.468Z,7.80
2018-12-20T19:12:05.385Z,7.80
2018-12-20T19:14:34.884Z,7.70
2018-12-20T19:17:03.814Z,7.70
2018-12-20T19:19:32.725Z,7.70
2018-12-20T19:22:01.647Z,7.60
2018-12-20T19:24:30.553Z,7.60
2018-12-20T19:27:00.648Z,7.50
2018-12-20T19:29:29.631Z,7.50
2018-12-20T19:31:58.687Z,7.50
2018-12-20T19:34:27.690Z,7.50
2018-12-20T19:36:56.626Z,7.50
2018-12-20T19:39:27.045Z,7.50
2018-12-20T19:42:00.426Z,7.60
2018-12-20T19:44:29.358Z,7.60
2018-12-20T19:46:58.319Z,7.70
2018-12-20T19:49:27.340Z,7.70
2018-12-20T19:51:56.276Z,7.80
2018-12-20T19:54:25.323Z,7.80
2018-12-20T19:56:54.520Z,7.80
2018-12-20T19:59:23.555Z,7.80
2018-12-20T20:01:52.662Z,7.70
2018-12-20T20:04:21.578Z,7.70
2018-12-20T20:06:58.419Z,7.70
2018-12-20T20:09:30.722Z,7.80
2018-12-20T20:15:16.674Z,7.80
2018-12-20T20:17:43.924Z,7.80
2018-12-20T20:20:14.134Z,7.90
2018-12-20T20:22:44.027Z,7.90
2018-12-20T20:25:12.947Z,7.90
2018-12-20T20:27:41.901Z,7.90
2018-12-20T20:30:13.690Z,7.90
2018-12-20T20:32:42.719Z,7.90
2018-12-20T20:35:12.953Z,7.80
2018-12-20T20:37:41.908Z,7.70
2018-12-20T20:40:11.378Z,7.70
2018-12-20T20:42:40.403Z,7.60
2018-12-20T20:45:09.731Z,7.50
2018-12-20T20:47:38.930Z,7.50
2018-12-20T20:50:09.549Z,7.50
2018-12-20T20:52:38.605Z,7.50
2018-12-20T20:55:08.808Z,7.40
2018-12-20T20:57:37.961Z,7.40
2018-12-20T21:00:16.200Z,7.40
2018-12-20T21:02:46.190Z,7.40
2018-12-20T21:05:15.220Z,7.40
2018-12-20T21:07:44.329Z,7.40
2018-12-20T21:10:14.232Z,7.40
2018-12-20T21:12:43.171Z,7.40
2018-12-20T21:15:12.377Z,7.40
2018-12-20T21:17:45.988Z,7.30
2018-12-20T21:23:30.960Z,7.20
2018-12-20T21:28:54.456Z,7.10
2018-12-20T21:31:31.264Z,7.10
2018-12-20T21:34:07.886Z,7.10
2018-12-20T21:39:58.200Z,7.10
2018-12-20T21:42:28.146Z,7.00
2018-12-20T21:44:57.008Z,7.00
2018-12-20T21:47:25.924Z,7.00
2018-12-20T21:49:55.011Z,6.90
2018-12-20T21:52:25.007Z,6.90
2018-12-20T21:54:54.902Z,6.90
2018-12-20T22:00:26.543Z,7.00
2018-12-20T22:02:58.614Z,7.00
2018-12-20T22:05:40.428Z,7.00
2018-12-20T22:08:12.765Z,7.10
2018-12-20T22:10:47.111Z,7.20
2018-12-20T22:13:22.436Z,7.20
2018-12-20T22:15:55.060Z,7.30
2018-12-20T22:18:27.472Z,7.30
2018-12-20T22:20:59.705Z,7.30
2018-12-20T22:23:32.445Z,7.40
2018-12-20T22:26:03.322Z,7.40
2018-12-20T22:28:35.337Z,7.40
2018-12-20T22:34:09.704Z,7.50
2018-12-20T22:36:42.133Z,7.50
2018-12-20T22:39:14.268Z,7.50
2018-12-20T22:41:46.272Z,7.60
2018-12-20T22:44:21.033Z,7.60
2018-12-20T22:46:53.621Z,7.60
2018-12-20T22:49:26.226Z,7.60
2018-12-20T22:52:01.233Z,7.60
2018-12-20T22:54:37.884Z,7.60
2018-12-20T22:57:06.745Z,7.60
2018-12-20T22:59:35.651Z,7.60
2018-12-20T23:02:17.874Z,7.60
2018-12-20T23:04:45.305Z,7.60
2018-12-20T23:07:17.647Z,7.60
2018-12-20T23:12:55.167Z,7.60
2018-12-20T23:15:24.182Z,7.60
2018-12-20T23:17:58.927Z,7.50
2018-12-20T23:23:30.948Z,7.50
2018-12-20T23:26:00.009Z,7.50
2018-12-20T23:28:28.981Z,7.50
2018-12-20T23:30:57.951Z,7.50
2018-12-20T23:33:27.002Z,7.50
2018-12-20T23:35:55.913Z,7.50
2018-12-20T23:38:24.852Z,7.40
2018-12-20T23:40:53.816Z,7.40
2018-12-20T23:43:22.776Z,7.40
2018-12-20T23:45:51.716Z,7.40
2018-12-20T23:48:20.655Z,7.40
2018-12-20T23:50:49.580Z,7.40
2018-12-20T23:53:18.518Z,7.40
2018-12-20T23:55:47.520Z,7.40
2018-12-20T23:58:17.649Z,7.40
